createdAt,value
2023-03-10T00:01:28.458Z,3.45
2023-03-10T00:03:58.830Z,3.11
2023-03-10T00:06:32.625Z,3.41
2023-03-10T00:09:01.146Z,3.00
2023-03-10T00:11:29.221Z,2.91
2023-03-10T00:13:57.262Z,2.70
2023-03-10T00:16:29.896Z,2.86
2023-03-10T00:18:58.037Z,3.03
2023-03-10T00:21:32.345Z,2.97
2023-03-10T00:24:00.706Z,2.66
2023-03-10T00:26:30.036Z,2.98
2023-03-10T00:28:58.075Z,2.90
2023-03-10T00:31:31.283Z,2.86
2023-03-10T00:33:59.736Z,3.51
2023-03-10T00:36:31.124Z,3.17
2023-03-10T00:39:01.481Z,3.27
2023-03-10T00:41:33.461Z,2.83
2023-03-10T00:44:02.088Z,2.95
2023-03-10T00:46:33.235Z,2.66
2023-03-10T00:49:01.262Z,2.71
2023-03-10T00:51:29.472Z,2.88
2023-03-10T00:53:58.807Z,2.85
2023-03-10T00:56:27.669Z,2.54
2023-03-10T00:59:00.680Z,2.38
2023-03-10T01:01:41.912Z,2.17
2023-03-10T01:04:15.553Z,2.72
2023-03-10T01:06:45.156Z,2.70
2023-03-10T01:09:13.667Z,3.19
2023-03-10T01:11:41.923Z,3.12
2023-03-10T01:14:14.780Z,3.05
2023-03-10T01:16:42.930Z,2.79
2023-03-10T01:19:11.160Z,2.99
2023-03-10T01:21:40.595Z,2.94
2023-03-10T01:24:15.106Z,2.75
2023-03-10T01:26:43.165Z,2.85
2023-03-10T01:29:11.095Z,2.55
2023-03-10T01:31:39.996Z,2.74
2023-03-10T01:34:10.448Z,2.50
2023-03-10T01:36:40.836Z,2.47
2023-03-10T01:39:09.269Z,2.53
2023-03-10T01:41:41.967Z,2.59
2023-03-10T01:44:18.129Z,2.45
2023-03-10T01:46:59.689Z,2.49
2023-03-10T01:49:36.218Z,2.95
2023-03-10T01:52:21.603Z,2.74
2023-03-10T01:55:21.707Z,2.74
2023-03-10T01:57:55.794Z,2.69
2023-03-10T02:00:27.178Z,2.85
2023-03-10T02:03:13.004Z,2.67
2023-03-10T02:05:50.126Z,2.65
2023-03-10T02:08:20.532Z,2.95
2023-03-10T02:10:50.703Z,2.50
2023-03-10T02:13:18.980Z,2.82
2023-03-10T02:15:47.743Z,2.58
2023-03-10T02:18:17.556Z,2.79
2023-03-10T02:21:28.187Z,2.55
2023-03-10T02:24:29.534Z,2.39
2023-03-10T02:27:17.107Z,2.41
2023-03-10T02:30:08.286Z,2.25
2023-03-10T02:32:43.917Z,2.17
2023-03-10T02:35:12.672Z,2.28
2023-03-10T02:37:41.624Z,2.28
2023-03-10T02:40:40.290Z,2.27
2023-03-10T02:43:23.072Z,2.13
2023-03-10T02:45:55.836Z,2.09
2023-03-10T02:48:31.126Z,2.09
2023-03-10T02:51:02.959Z,1.99
2023-03-10T02:53:31.432Z,2.05
2023-03-10T02:56:00.284Z,2.03
2023-03-10T02:58:31.036Z,1.87
2023-03-10T03:00:59.600Z,1.94
2023-03-10T03:03:28.091Z,1.95
2023-03-10T03:05:56.710Z,2.01
2023-03-10T03:08:24.949Z,1.86
2023-03-10T03:10:53.496Z,2.03
2023-03-10T03:13:21.853Z,2.29
2023-03-10T03:15:53.712Z,1.97
2023-03-10T03:18:22.357Z,2.12
2023-03-10T03:20:50.334Z,2.19
2023-03-10T03:23:19.659Z,2.20
2023-03-10T03:25:48.039Z,2.14
2023-03-10T03:28:16.126Z,2.17
2023-03-10T03:30:46.432Z,1.93
2023-03-10T03:33:14.775Z,2.00
2023-03-10T03:35:44.116Z,2.14
2023-03-10T03:38:12.730Z,2.15
2023-03-10T03:40:40.952Z,2.15
2023-03-10T03:43:10.237Z,2.10
2023-03-10T03:45:38.402Z,2.04
2023-03-10T03:48:06.690Z,2.29
2023-03-10T03:50:34.694Z,2.05
2023-03-10T03:53:02.634Z,2.09
2023-03-10T03:55:30.602Z,1.88
2023-03-10T03:57:58.581Z,1.92
2023-03-10T04:00:26.870Z,2.05
2023-03-10T04:02:55.110Z,2.13
2023-03-10T04:05:23.141Z,2.15
2023-03-10T04:07:51.137Z,2.16
2023-03-10T04:10:23.633Z,2.15
2023-03-10T04:12:51.607Z,2.13
2023-03-10T04:15:19.777Z,2.24
2023-03-10T04:17:48.044Z,2.12
2023-03-10T04:20:17.770Z,2.23
2023-03-10T04:22:45.843Z,2.66
2023-03-10T04:25:13.796Z,2.55
2023-03-10T04:27:41.808Z,2.33
2023-03-10T04:30:14.265Z,2.20
2023-03-10T04:32:42.397Z,2.20
2023-03-10T04:35:13.694Z,2.10
2023-03-10T04:37:42.149Z,2.14
2023-03-10T04:40:14.057Z,2.66
2023-03-10T04:42:42.434Z,2.24
2023-03-10T04:45:11.422Z,2.18
2023-03-10T04:47:39.614Z,3.16
2023-03-10T04:50:08.545Z,3.75
2023-03-10T04:52:36.463Z,2.51
2023-03-10T04:55:05.263Z,2.26
2023-03-10T04:57:33.246Z,2.07
2023-03-10T05:00:03.131Z,2.08
2023-03-10T05:02:32.650Z,3.24
2023-03-10T05:05:03.463Z,2.84
2023-03-10T05:07:31.494Z,2.25
2023-03-10T05:10:00.487Z,2.31
2023-03-10T05:12:28.404Z,3.25
2023-03-10T05:14:56.472Z,3.37
2023-03-10T05:17:25.052Z,2.48
2023-03-10T05:19:53.073Z,2.27
2023-03-10T05:22:21.436Z,2.23
2023-03-10T05:24:49.923Z,2.13
2023-03-10T05:27:19.774Z,2.09
2023-03-10T05:29:48.283Z,2.21
2023-03-10T05:32:16.469Z,2.42
2023-03-10T05:34:44.597Z,2.12
2023-03-10T05:37:12.611Z,3.17
2023-03-10T05:39:40.852Z,2.41
2023-03-10T05:42:09.056Z,2.20
2023-03-10T05:44:37.593Z,2.17
2023-03-10T05:47:06.862Z,2.16
2023-03-10T05:49:36.715Z,2.32
2023-03-10T05:52:07.254Z,2.76
2023-03-10T05:54:35.987Z,3.23
2023-03-10T05:57:04.219Z,2.53
2023-03-10T05:59:32.288Z,2.30
2023-03-10T06:02:03.288Z,2.19
2023-03-10T06:04:34.165Z,2.23
2023-03-10T06:07:02.513Z,2.24
2023-03-10T06:09:32.445Z,2.43
2023-03-10T06:12:00.811Z,2.66
2023-03-10T06:14:28.741Z,2.35
2023-03-10T06:16:56.947Z,2.42
2023-03-10T06:19:27.507Z,3.06
2023-03-10T06:21:55.449Z,2.86
2023-03-10T06:24:23.399Z,2.37
2023-03-10T06:26:51.435Z,2.49
2023-03-10T06:29:19.382Z,2.85
2023-03-10T06:31:50.566Z,2.83
2023-03-10T06:34:19.097Z,2.47
2023-03-10T06:36:46.983Z,2.78
2023-03-10T06:39:15.090Z,2.69
2023-03-10T06:41:45.802Z,2.78
2023-03-10T06:44:18.823Z,2.48
2023-03-10T06:46:47.579Z,2.66
2023-03-10T06:49:15.577Z,2.78
2023-03-10T06:51:44.023Z,3.16
2023-03-10T06:54:12.119Z,3.13
2023-03-10T06:56:40.186Z,2.82
2023-03-10T06:59:08.349Z,2.55
2023-03-10T07:01:36.433Z,2.65
2023-03-10T07:04:04.397Z,2.83
2023-03-10T07:06:32.738Z,2.93
2023-03-10T07:09:00.888Z,3.30
2023-03-10T07:11:28.879Z,3.98
2023-03-10T07:13:56.900Z,2.75
2023-03-10T07:16:25.073Z,2.49
2023-03-10T07:18:53.060Z,2.70
2023-03-10T07:21:22.094Z,3.53
2023-03-10T07:23:50.298Z,4.06
2023-03-10T07:26:18.912Z,2.61
2023-03-10T07:28:47.504Z,2.57
2023-03-10T07:31:18.613Z,2.89
2023-03-10T07:33:47.368Z,2.56
2023-03-10T07:36:19.695Z,2.92
2023-03-10T07:38:48.061Z,3.12
2023-03-10T07:41:22.016Z,2.77
2023-03-10T07:43:54.458Z,3.02
2023-03-10T07:46:22.822Z,3.09
2023-03-10T07:48:52.718Z,2.71
2023-03-10T07:51:21.203Z,3.10
2023-03-10T07:53:49.093Z,3.10
2023-03-10T07:56:17.135Z,2.96
2023-03-10T07:58:45.286Z,3.43
2023-03-10T08:01:20.564Z,2.97
2023-03-10T08:03:49.346Z,3.03
2023-03-10T08:06:27.788Z,2.76
2023-03-10T08:09:58.633Z,3.48
2023-03-10T08:12:25.989Z,4.47
2023-03-10T08:14:53.395Z,3.66
2023-03-10T08:17:20.721Z,3.93
2023-03-10T08:19:47.842Z,3.55
2023-03-10T08:22:18.082Z,4.21
2023-03-10T08:24:45.197Z,3.47
2023-03-10T08:27:12.376Z,2.99
2023-03-10T08:29:39.485Z,3.79
2023-03-10T08:32:07.134Z,3.46
2023-03-10T08:34:35.952Z,3.75
2023-03-10T08:37:03.410Z,3.48
2023-03-10T08:39:30.473Z,3.13
2023-03-10T08:41:57.497Z,3.23
2023-03-10T08:44:24.567Z,3.44
2023-03-10T08:46:52.058Z,3.36
2023-03-10T08:49:22.189Z,3.55
2023-03-10T08:51:50.108Z,3.57
2023-03-10T08:54:21.687Z,3.40
2023-03-10T08:56:50.105Z,3.31
2023-03-10T08:59:18.307Z,3.27
2023-03-10T09:01:46.842Z,3.96
2023-03-10T09:04:13.986Z,4.09
2023-03-10T09:06:41.162Z,4.03
2023-03-10T09:09:10.396Z,3.59
2023-03-10T09:11:40.643Z,3.76
2023-03-10T09:14:10.148Z,3.46
2023-03-10T09:16:39.468Z,3.61
2023-03-10T09:19:06.880Z,4.29
2023-03-10T09:21:36.851Z,4.21
2023-03-10T09:24:04.926Z,4.39
2023-03-10T09:26:33.157Z,3.86
2023-03-10T09:29:01.182Z,4.56
2023-03-10T09:31:39.337Z,5.09
2023-03-10T09:34:08.326Z,4.55
2023-03-10T09:36:35.935Z,4.48
2023-03-10T09:39:04.453Z,4.41
2023-03-10T09:41:53.236Z,4.56
2023-03-10T09:44:48.085Z,5.40
2023-03-10T09:48:11.064Z,4.76
2023-03-10T09:50:49.674Z,4.51
2023-03-10T09:53:37.491Z,4.57
2023-03-10T09:56:31.598Z,4.92
2023-03-10T10:03:31.790Z,5.07
2023-03-10T10:06:03.185Z,4.98
2023-03-10T10:09:07.187Z,5.53
2023-03-10T10:11:39.493Z,5.50
2023-03-10T10:14:30.589Z,5.11
2023-03-10T10:18:02.945Z,5.30
2023-03-10T10:20:58.645Z,4.82
2023-03-10T10:23:47.232Z,5.04
2023-03-10T10:26:24.854Z,5.71
2023-03-10T10:29:22.176Z,5.54
2023-03-10T10:32:15.330Z,5.30
2023-03-10T10:34:46.457Z,5.32
2023-03-10T10:37:40.170Z,5.45
2023-03-10T10:40:30.290Z,5.83
2023-03-10T10:43:00.709Z,5.97
2023-03-10T10:45:37.471Z,6.13
2023-03-10T10:48:04.816Z,5.95
2023-03-10T10:50:35.484Z,6.61
2023-03-10T10:53:26.675Z,6.22
2023-03-10T10:56:13.043Z,5.95
2023-03-10T10:58:43.852Z,6.47
2023-03-10T11:01:16.479Z,7.27
2023-03-10T11:03:48.724Z,6.93
2023-03-10T11:06:32.118Z,6.47
2023-03-10T11:09:12.581Z,7.30
2023-03-10T11:12:07.379Z,7.32
2023-03-10T11:14:52.355Z,8.16
2023-03-10T11:17:51.406Z,7.93
2023-03-10T11:21:04.384Z,7.92
2023-03-10T11:23:49.602Z,8.50
2023-03-10T11:26:27.117Z,8.73
2023-03-10T11:29:04.800Z,9.07
2023-03-10T11:32:08.167Z,8.42
2023-03-10T11:34:49.271Z,8.36
2023-03-10T11:37:41.926Z,8.34
2023-03-10T11:40:41.523Z,8.35
2023-03-10T11:43:42.147Z,8.71
2023-03-10T11:46:33.309Z,9.53
2023-03-10T11:49:17.297Z,9.73
2023-03-10T11:51:54.533Z,9.52
2023-03-10T11:54:36.809Z,8.94
2023-03-10T11:57:15.194Z,8.78
2023-03-10T11:59:59.222Z,9.23
2023-03-10T12:02:57.165Z,9.80
2023-03-10T12:05:27.166Z,9.89
2023-03-10T12:08:02.514Z,9.79
2023-03-10T12:10:31.373Z,10.15
2023-03-10T12:12:59.229Z,10.33
2023-03-10T12:15:36.996Z,10.35
2023-03-10T12:18:08.204Z,10.41
2023-03-10T12:20:37.157Z,10.64
2023-03-10T12:23:10.216Z,9.36
2023-03-10T12:25:41.431Z,9.54
2023-03-10T12:28:17.491Z,9.36
2023-03-10T12:31:10.752Z,9.04
2023-03-10T12:33:45.543Z,9.13
2023-03-10T12:36:40.691Z,9.64
2023-03-10T12:39:38.369Z,8.92
2023-03-10T12:42:37.266Z,8.71
2023-03-10T12:45:31.343Z,9.16
2023-03-10T12:48:12.153Z,9.22
2023-03-10T12:51:16.024Z,9.17
2023-03-10T12:54:23.544Z,9.34
2023-03-10T12:57:44.118Z,9.57
2023-03-10T13:00:55.448Z,9.61
2023-03-10T13:03:41.752Z,9.21
2023-03-10T13:06:39.833Z,8.68
2023-03-10T13:09:30.969Z,8.79
2023-03-10T13:12:11.486Z,8.81
2023-03-10T13:14:42.525Z,9.29
2023-03-10T13:17:26.930Z,8.92
2023-03-10T13:20:21.767Z,8.68
2023-03-10T13:22:59.435Z,8.58
2023-03-10T13:25:27.281Z,9.20
2023-03-10T13:27:57.340Z,8.39
2023-03-10T13:30:27.863Z,8.60
2023-03-10T13:32:59.610Z,8.68
2023-03-10T13:35:39.326Z,8.49
2023-03-10T13:38:24.309Z,8.68
2023-03-10T13:41:03.698Z,8.49
2023-03-10T13:43:49.015Z,8.51
2023-03-10T13:46:32.736Z,8.61
2023-03-10T13:49:06.618Z,8.08
2023-03-10T13:51:37.529Z,8.34
2023-03-10T13:54:31.712Z,7.90
2023-03-10T13:57:34.536Z,7.97
2023-03-10T14:00:02.670Z,7.75
2023-03-10T14:02:39.392Z,7.59
2023-03-10T14:05:28.722Z,7.73
2023-03-10T14:08:00.723Z,7.65
2023-03-10T14:10:29.221Z,8.57
2023-03-10T14:12:56.332Z,8.77
2023-03-10T14:15:38.741Z,7.44
2023-03-10T14:18:08.430Z,8.21
2023-03-10T14:20:48.432Z,8.66
2023-03-10T14:23:27.593Z,8.67
2023-03-10T14:25:58.899Z,7.75
2023-03-10T14:28:32.485Z,7.96
2023-03-10T14:31:04.571Z,7.36
2023-03-10T14:33:34.946Z,7.46
2023-03-10T14:36:02.208Z,7.26
2023-03-10T14:38:29.377Z,6.89
2023-03-10T14:40:56.583Z,7.12
2023-03-10T14:43:27.393Z,7.05
2023-03-10T14:45:58.693Z,6.88
2023-03-10T14:48:34.912Z,6.70
2023-03-10T14:51:03.026Z,7.00
2023-03-10T14:53:34.034Z,6.38
2023-03-10T14:56:02.752Z,6.29
2023-03-10T14:59:02.554Z,6.45
2023-03-10T15:01:30.509Z,5.74
2023-03-10T15:03:57.616Z,5.91
2023-03-10T15:06:24.676Z,6.28
2023-03-10T15:08:51.711Z,5.73
2023-03-10T15:11:30.328Z,6.24
2023-03-10T15:14:11.450Z,6.08
2023-03-10T15:16:38.602Z,5.87
2023-03-10T15:19:05.720Z,5.86
2023-03-10T15:21:33.010Z,5.75
2023-03-10T15:24:00.139Z,5.60
2023-03-10T15:26:27.221Z,5.07
2023-03-10T15:28:54.318Z,4.92
2023-03-10T15:31:21.385Z,5.09
2023-03-10T15:33:48.541Z,4.80
2023-03-10T15:36:16.017Z,4.51
2023-03-10T15:38:43.200Z,4.51
2023-03-10T15:41:10.279Z,4.37
2023-03-10T15:43:37.622Z,4.69
2023-03-10T15:46:09.494Z,4.62
2023-03-10T15:48:36.795Z,4.69
2023-03-10T15:51:17.318Z,4.54
2023-03-10T15:53:45.463Z,4.81
2023-03-10T15:56:13.217Z,4.93
2023-03-10T15:58:40.303Z,4.98
2023-03-10T16:01:20.664Z,4.64
2023-03-10T16:03:51.384Z,4.58
2023-03-10T16:06:18.909Z,4.72
2023-03-10T16:08:47.147Z,4.63
2023-03-10T16:11:20.299Z,4.47
2023-03-10T16:13:49.488Z,4.54
2023-03-10T16:16:23.056Z,4.44
2023-03-10T16:18:50.458Z,4.96
2023-03-10T16:21:18.265Z,4.98
2023-03-10T16:23:45.830Z,4.52
2023-03-10T16:26:17.159Z,4.27
2023-03-10T16:28:48.980Z,3.99
2023-03-10T16:31:19.769Z,4.05
2023-03-10T16:33:49.603Z,4.17
2023-03-10T16:36:22.022Z,4.20
2023-03-10T16:38:49.765Z,4.10
2023-03-10T16:41:18.047Z,4.13
2023-03-10T16:43:47.788Z,4.32
2023-03-10T16:46:30.059Z,4.07
2023-03-10T16:49:00.140Z,3.72
2023-03-10T16:51:38.026Z,3.89
2023-03-10T16:54:13.028Z,3.87
2023-03-10T16:56:45.023Z,4.17
2023-03-10T16:59:22.690Z,4.62
2023-03-10T17:01:51.137Z,4.55
2023-03-10T17:04:20.064Z,4.41
2023-03-10T17:06:50.511Z,4.23
2023-03-10T17:09:18.384Z,4.33
2023-03-10T17:11:54.322Z,3.87
2023-03-10T17:14:22.642Z,3.72
2023-03-10T17:16:50.794Z,4.02
2023-03-10T17:19:26.406Z,3.89
2023-03-10T17:21:53.980Z,4.40
2023-03-10T17:24:21.493Z,4.21
2023-03-10T17:26:49.200Z,3.62
2023-03-10T17:29:17.000Z,3.55
2023-03-10T17:31:48.733Z,3.52
2023-03-10T17:34:15.985Z,3.32
2023-03-10T17:36:43.389Z,3.18
2023-03-10T17:39:21.205Z,3.51
2023-03-10T17:41:49.315Z,3.57
2023-03-10T17:44:17.153Z,3.32
2023-03-10T17:46:45.353Z,3.44
2023-03-10T17:49:14.330Z,3.79
2023-03-10T17:51:44.162Z,4.04
2023-03-10T17:54:21.867Z,3.53
2023-03-10T17:56:50.193Z,3.66
2023-03-10T17:59:18.021Z,3.66
2023-03-10T18:01:46.059Z,4.04
2023-03-10T18:04:13.720Z,4.09
2023-03-10T18:06:41.197Z,4.02
2023-03-10T18:09:13.234Z,3.76
2023-03-10T18:11:41.812Z,4.66
2023-03-10T18:14:08.878Z,4.92
2023-03-10T18:16:40.003Z,4.13
2023-03-10T18:19:10.493Z,3.69
2023-03-10T18:21:38.819Z,3.68
2023-03-10T18:24:06.506Z,3.43
2023-03-10T18:26:35.381Z,3.13
2023-03-10T18:29:02.600Z,3.22
2023-03-10T18:31:34.358Z,3.38
2023-03-10T18:34:02.628Z,3.20
2023-03-10T18:36:30.532Z,3.20
2023-03-10T18:38:58.044Z,3.66
2023-03-10T18:41:30.675Z,3.69
2023-03-10T18:43:57.815Z,3.73
2023-03-10T18:46:25.157Z,4.10
2023-03-10T18:48:58.105Z,3.60
2023-03-10T18:51:28.135Z,3.37
2023-03-10T18:53:55.663Z,3.71
2023-03-10T18:56:25.630Z,3.52
2023-03-10T18:58:52.756Z,3.11
2023-03-10T19:01:19.882Z,3.17
2023-03-10T19:03:46.945Z,3.59
2023-03-10T19:06:17.460Z,3.19
2023-03-10T19:08:44.697Z,4.19
2023-03-10T19:11:12.077Z,3.83
2023-03-10T19:13:40.524Z,2.83
2023-03-10T19:16:09.763Z,3.18
2023-03-10T19:18:38.023Z,3.26
2023-03-10T19:21:06.098Z,3.30
2023-03-10T19:23:34.882Z,3.60
2023-03-10T19:26:03.258Z,3.59
2023-03-10T19:28:31.266Z,3.71
2023-03-10T19:30:58.537Z,3.28
2023-03-10T19:33:25.736Z,3.30
2023-03-10T19:36:05.492Z,3.57
2023-03-10T19:38:36.434Z,3.84
2023-03-10T19:41:05.678Z,3.59
2023-03-10T19:43:33.579Z,2.98
2023-03-10T19:46:03.563Z,3.16
2023-03-10T19:48:31.415Z,3.77
2023-03-10T19:51:00.143Z,3.97
2023-03-10T19:53:29.624Z,3.85
2023-03-10T19:56:03.491Z,3.23
2023-03-10T19:58:32.644Z,3.18
2023-03-10T20:01:00.520Z,4.01
2023-03-10T20:03:30.835Z,3.60
2023-03-10T20:05:58.101Z,3.46
2023-03-10T20:08:25.449Z,3.13
2023-03-10T20:10:52.608Z,2.94
2023-03-10T20:13:20.884Z,3.29
2023-03-10T20:15:47.912Z,3.19
2023-03-10T20:18:18.278Z,3.04
2023-03-10T20:20:48.469Z,3.01
2023-03-10T20:23:16.285Z,3.09
2023-03-10T20:25:45.529Z,3.06
2023-03-10T20:28:14.037Z,2.85
2023-03-10T20:30:41.511Z,2.63
2023-03-10T20:33:08.791Z,2.82
2023-03-10T20:35:38.073Z,3.01
2023-03-10T20:38:05.285Z,3.27
2023-03-10T20:40:32.473Z,3.23
2023-03-10T20:42:59.731Z,3.08
2023-03-10T20:45:28.065Z,2.98
2023-03-10T20:47:55.567Z,3.23
2023-03-10T20:50:23.213Z,2.92
2023-03-10T20:52:50.952Z,3.17
2023-03-10T20:55:27.341Z,2.68
2023-03-10T20:57:58.361Z,2.84
2023-03-10T21:00:28.689Z,2.76
2023-03-10T21:02:57.314Z,2.95
2023-03-10T21:05:27.352Z,3.42
2023-03-10T21:07:54.869Z,3.07
2023-03-10T21:10:22.493Z,2.95
2023-03-10T21:12:50.741Z,3.33
2023-03-10T21:15:19.486Z,3.07
2023-03-10T21:17:47.621Z,3.65
2023-03-10T21:20:23.686Z,2.68
2023-03-10T21:22:51.266Z,2.80
2023-03-10T21:25:25.695Z,3.00
2023-03-10T21:28:01.815Z,2.88
2023-03-10T21:30:31.921Z,2.94
2023-03-10T21:32:59.927Z,2.73
2023-03-10T21:35:31.873Z,2.69
2023-03-10T21:37:59.347Z,2.92
2023-03-10T21:40:26.902Z,2.49
2023-03-10T21:42:54.105Z,2.77
2023-03-10T21:45:24.273Z,3.15
2023-03-10T21:47:51.546Z,2.57
2023-03-10T21:50:19.454Z,2.75
2023-03-10T21:52:47.926Z,2.49
2023-03-10T21:55:24.955Z,2.60
2023-03-10T21:57:52.900Z,2.67
2023-03-10T22:00:23.300Z,3.14
2023-03-10T22:03:00.431Z,2.53
2023-03-10T22:05:27.590Z,2.72
2023-03-10T22:07:56.369Z,2.80
2023-03-10T22:10:23.548Z,2.88
2023-03-10T22:12:50.589Z,2.79
2023-03-10T22:15:27.262Z,3.03
2023-03-10T22:17:55.570Z,3.05
2023-03-10T22:20:28.387Z,2.82
2023-03-10T22:22:55.841Z,2.65
2023-03-10T22:25:26.227Z,3.02
2023-03-10T22:27:56.117Z,2.96
2023-03-10T22:30:26.479Z,2.35
2023-03-10T22:32:55.204Z,2.71
2023-03-10T22:35:23.308Z,2.86
2023-03-10T22:37:54.053Z,2.70
2023-03-10T22:40:27.379Z,2.62
2023-03-10T22:42:54.672Z,2.77
2023-03-10T22:45:27.748Z,2.66
2023-03-10T22:48:00.007Z,2.71
2023-03-10T22:50:44.206Z,2.61
2023-03-10T22:53:20.834Z,2.40
2023-03-10T22:55:49.639Z,2.94
2023-03-10T22:58:17.121Z,2.66
2023-03-10T23:00:44.583Z,2.62
2023-03-10T23:03:13.739Z,2.60
2023-03-10T23:05:41.576Z,2.56
2023-03-10T23:08:08.715Z,2.42
2023-03-10T23:10:37.210Z,2.37
2023-03-10T23:13:14.410Z,2.98
2023-03-10T23:15:42.627Z,2.80
2023-03-10T23:18:10.561Z,2.73
2023-03-10T23:20:44.011Z,3.32
2023-03-10T23:23:18.223Z,2.76
2023-03-10T23:25:48.732Z,2.69
2023-03-10T23:28:17.894Z,2.65
2023-03-10T23:30:48.569Z,2.91
2023-03-10T23:33:23.271Z,2.35
2023-03-10T23:35:53.623Z,2.42
2023-03-10T23:38:26.380Z,2.12
2023-03-10T23:40:56.465Z,2.43
2023-03-10T23:43:23.863Z,2.59
2023-03-10T23:45:50.994Z,2.71
2023-03-10T23:48:20.049Z,2.38
2023-03-10T23:50:48.628Z,2.83
2023-03-10T23:53:20.785Z,2.71
2023-03-10T23:55:48.676Z,2.34
2023-03-10T23:58:19.184Z,2.57
